Time;durP1;ratioP1;P1;durP2;ratioP2;P2;SDS_P1;SDS_P2;PMS_P1;PMS_P2;Temp;Humidity;BMP_temperature;BMP_pressure;BME280_temperature;BME280_humidity;BME280_pressure;Samples;Min_cycle;Max_cycle;Signal;HPM_P1;HPM_P2
2022/06/06 03:02:02;;;;;;;0.70;0.60;;;17.20;83.10;;;;;;5351639;23;20498;-73
2022/06/06 03:04:30;;;;;;;0.70;0.60;;;17.20;83.50;;;;;;4977164;28;20809;-73
2022/06/06 03:07:14;;;;;;;0.80;0.70;;;17.30;83.20;;;;;;4977168;28;20442;-73
2022/06/06 03:09:51;;;;;;;0.70;0.60;;;17.30;82.80;;;;;;4977204;28;20988;-73
2022/06/06 03:12:35;;;;;;;0.70;0.60;;;17.30;82.50;;;;;;4977338;28;20469;-73
2022/06/06 03:15:17;;;;;;;0.90;0.70;;;17.40;82.20;;;;;;5009696;23;20488;-70
2022/06/06 03:20:49;;;;;;;0.73;0.60;;;17.40;81.90;;;;;;4996194;28;20401;-70
2022/06/06 03:23:51;;;;;;;0.70;0.70;;;17.40;81.70;;;;;;4995884;28;20426;-70
2022/06/06 03:26:28;;;;;;;0.80;0.63;;;17.40;81.50;;;;;;4974104;28;20461;-70
2022/06/06 03:29:09;;;;;;;1.30;0.80;;;17.00;83.30;;;;;;4975922;28;20468;-70
2022/06/06 03:31:46;;;;;;;0.70;0.63;;;16.70;84.80;;;;;;4975854;28;20446;-71
2022/06/06 03:34:21;;;;;;;0.80;0.70;;;16.90;84.80;;;;;;4975330;28;20577;-69
2022/06/06 03:36:59;;;;;;;0.80;0.70;;;17.00;84.30;;;;;;4976095;28;20446;-71
2022/06/06 03:39:32;;;;;;;0.80;0.60;;;17.10;83.90;;;;;;4976132;28;20469;-72
2022/06/06 03:42:09;;;;;;;0.80;0.70;;;17.20;83.60;;;;;;4976014;28;20478;-72
2022/06/06 03:45:08;;;;;;;0.70;0.60;;;17.30;83.30;;;;;;4975841;28;20465;-72
2022/06/06 03:47:45;;;;;;;0.80;0.70;;;17.40;82.70;;;;;;4975562;28;20948;-72
2022/06/06 03:50:25;;;;;;;0.70;0.60;;;17.50;82.30;;;;;;4975902;28;20430;-72
2022/06/06 03:52:56;;;;;;;1.00;0.90;;;17.50;82.00;;;;;;4975505;28;21047;-72
2022/06/06 03:55:37;;;;;;;0.80;0.70;;;17.60;81.60;;;;;;4975855;28;20528;-72
2022/06/06 03:58:05;;;;;;;0.70;0.60;;;17.60;81.40;;;;;;4975427;28;20906;-70
2022/06/06 04:00:34;;;;;;;1.10;0.70;;;17.60;81.30;;;;;;4975750;28;20454;-69
2022/06/06 04:03:04;;;;;;;0.70;0.70;;;17.50;81.80;;;;;;4975362;28;21080;-71
2022/06/06 04:05:35;;;;;;;0.70;0.60;;;17.50;81.80;;;;;;4976225;28;20821;-71
2022/06/06 04:08:02;;;;;;;0.80;0.80;;;17.30;82.70;;;;;;4975701;28;20442;-71
2022/06/06 04:10:38;;;;;;;0.80;0.80;;;17.20;83.40;;;;;;4975497;28;20516;-69
2022/06/06 04:13:14;;;;;;;0.70;0.70;;;17.00;84.20;;;;;;4974959;28;20521;-69
2022/06/06 04:15:53;;;;;;;0.70;0.60;;;16.90;84.90;;;;;;4975104;28;20489;-69
2022/06/06 04:18:33;;;;;;;0.70;0.70;;;16.70;85.80;;;;;;4975449;28;20518;-69
2022/06/06 04:21:20;;;;;;;0.70;0.60;;;16.70;85.60;;;;;;4975367;28;20438;-71
2022/06/06 04:23:59;;;;;;;0.80;0.70;;;16.70;86.00;;;;;;4975167;28;20434;-71
2022/06/06 04:26:33;;;;;;;0.70;0.70;;;16.80;86.10;;;;;;4975203;28;20422;-70
2022/06/06 04:29:07;;;;;;;0.80;0.80;;;17.00;85.60;;;;;;4975102;28;20500;-70
2022/06/06 04:31:44;;;;;;;0.70;0.70;;;17.10;84.40;;;;;;4975108;28;20447;-70
2022/06/06 04:34:17;;;;;;;1.53;0.70;;;17.10;84.70;;;;;;4975321;28;20489;-71
2022/06/06 04:36:53;;;;;;;0.87;0.87;;;17.10;84.60;;;;;;4974894;28;20450;-70
2022/06/06 04:39:23;;;;;;;0.80;0.70;;;17.10;84.80;;;;;;4974914;28;20434;-70
2022/06/06 04:41:55;;;;;;;0.70;0.70;;;17.20;84.70;;;;;;4975835;28;20450;-70
2022/06/06 04:44:27;;;;;;;0.70;0.60;;;17.40;84.50;;;;;;4974760;28;20466;-71
2022/06/06 04:46:58;;;;;;;0.70;0.60;;;17.40;84.00;;;;;;4974628;28;20503;-71
2022/06/06 04:49:28;;;;;;;0.70;0.60;;;17.40;84.10;;;;;;4974969;28;20498;-71
2022/06/06 04:51:58;;;;;;;0.70;0.70;;;17.40;84.10;;;;;;4974733;28;20496;-71
2022/06/06 04:54:26;;;;;;;0.80;0.70;;;17.50;84.20;;;;;;4974513;28;20567;-71
2022/06/06 04:56:53;;;;;;;0.70;0.67;;;17.60;84.50;;;;;;4974628;28;20500;-71
2022/06/06 04:59:22;;;;;;;0.70;0.70;;;17.80;84.30;;;;;;4974277;28;20481;-69
2022/06/06 05:01:50;;;;;;;0.70;0.70;;;18.00;83.50;;;;;;4974282;28;20940;-71
2022/06/06 05:04:16;;;;;;;0.70;0.67;;;18.20;82.60;;;;;;4974081;28;20847;-71
2022/06/06 05:07:07;;;;;;;0.80;0.80;;;18.40;81.90;;;;;;4974175;28;20949;-70
2022/06/06 05:09:56;;;;;;;0.70;0.70;;;18.30;82.00;;;;;;4974454;28;20497;-70
2022/06/06 05:12:39;;;;;;;0.70;0.60;;;18.30;82.30;;;;;;4974509;28;20457;-69
2022/06/06 05:15:23;;;;;;;0.90;0.70;;;18.20;82.20;;;;;;4974478;28;20497;-70
2022/06/06 05:18:03;;;;;;;0.70;0.60;;;18.30;82.30;;;;;;4974512;28;20481;-71
2022/06/06 05:20:48;;;;;;;0.80;0.70;;;18.10;82.20;;;;;;4974303;28;20443;-71
2022/06/06 05:23:35;;;;;;;0.70;0.60;;;18.10;83.70;;;;;;4974275;28;20434;-71
2022/06/06 05:26:17;;;;;;;0.70;0.60;;;18.30;83.10;;;;;;4974181;28;20469;-69
2022/06/06 05:29:07;;;;;;;0.70;0.67;;;18.50;81.30;;;;;;4973851;28;20839;-71
2022/06/06 05:31:47;;;;;;;0.73;0.73;;;18.40;81.70;;;;;;4974141;28;20434;-71
2022/06/06 05:34:18;;;;;;;0.70;0.60;;;18.30;81.90;;;;;;4974032;28;20485;-71
2022/06/06 05:36:57;;;;;;;0.70;0.70;;;18.50;82.00;;;;;;4974012;28;20481;-71
2022/06/06 05:39:58;;;;;;;0.70;0.67;;;18.60;81.70;;;;;;4974098;28;20489;-71
2022/06/06 05:42:41;;;;;;;0.70;0.60;;;18.70;81.50;;;;;;4963478;28;20865;-70
2022/06/06 05:45:20;;;;;;;0.70;0.70;;;18.90;82.10;;;;;;4973663;28;20465;-72
2022/06/06 05:47:55;;;;;;;0.70;0.70;;;19.20;80.70;;;;;;4974015;28;20434;-71
2022/06/06 05:50:36;;;;;;;0.80;0.70;;;19.20;80.00;;;;;;4974086;28;20441;-71
2022/06/06 05:53:21;;;;;;;1.00;0.70;;;19.50;80.30;;;;;;4973894;28;20533;-70
2022/06/06 05:56:25;;;;;;;1.10;0.60;;;19.60;79.80;;;;;;4973691;28;20524;-72
2022/06/06 05:59:04;;;;;;;0.80;0.60;;;19.70;79.50;;;;;;4973891;28;20429;-72
2022/06/06 06:01:45;;;;;;;0.80;0.63;;;19.80;79.60;;;;;;4973976;28;20438;-72
2022/06/06 06:04:38;;;;;;;0.70;0.60;;;20.10;79.90;;;;;;4973640;28;20461;-72
2022/06/06 06:07:16;;;;;;;0.73;0.70;;;20.40;78.30;;;;;;4973556;28;20516;-71
2022/06/06 06:09:55;;;;;;;0.70;0.60;;;20.80;76.70;;;;;;4973934;28;20441;-71
2022/06/06 06:12:57;;;;;;;0.70;0.60;;;20.70;75.60;;;;;;4973819;28;20468;-71
2022/06/06 06:15:29;;;;;;;0.70;0.63;;;20.80;76.40;;;;;;4973364;28;20851;-71
2022/06/06 06:17:57;;;;;;;0.70;0.60;;;20.60;77.00;;;;;;4973672;28;20484;-71
2022/06/06 06:20:26;;;;;;;0.70;0.70;;;20.70;76.90;;;;;;4973639;28;20480;-71
2022/06/06 06:22:57;;;;;;;0.70;0.60;;;20.40;77.40;;;;;;4973553;28;20496;-70
2022/06/06 06:25:25;;;;;;;0.70;0.70;;;20.20;77.70;;;;;;4973121;28;20985;-71
2022/06/06 06:27:57;;;;;;;0.70;0.60;;;20.20;77.90;;;;;;4973133;28;20477;-70
2022/06/06 06:30:26;;;;;;;0.70;0.60;;;20.30;77.40;;;;;;4973977;28;20508;-72
2022/06/06 06:33:07;;;;;;;0.70;0.70;;;20.50;77.80;;;;;;4973222;28;20988;-71
2022/06/06 06:35:48;;;;;;;0.80;0.80;;;19.80;78.70;;;;;;4973271;28;20489;-70
2022/06/06 06:38:29;;;;;;;0.70;0.70;;;19.90;78.90;;;;;;4973032;28;20434;-70
2022/06/06 06:41:05;;;;;;;0.80;0.80;;;19.90;79.40;;;;;;4973223;28;20517;-70
2022/06/06 06:43:50;;;;;;;0.80;0.80;;;20.10;78.30;;;;;;4974337;28;20438;-69
2022/06/06 06:46:22;;;;;;;0.70;0.63;;;20.00;78.40;;;;;;4973517;28;20431;-69
2022/06/06 06:48:52;;;;;;;0.70;0.67;;;20.20;79.00;;;;;;4973509;28;20470;-70
2022/06/06 06:51:23;;;;;;;0.70;0.60;;;20.40;77.30;;;;;;4973492;28;20533;-70
2022/06/06 06:54:07;;;;;;;0.70;0.70;;;20.50;77.30;;;;;;4974003;28;20466;-71
2022/06/06 06:56:59;;;;;;;0.70;0.70;;;20.40;78.10;;;;;;4973486;28;20434;-70
2022/06/06 06:59:38;;;;;;;0.70;0.67;;;20.50;77.60;;;;;;4973278;28;20544;-69
2022/06/06 07:11:16;;;;;;;1.40;0.87;;;20.60;78.40;;;;;;4976960;28;20457;-71
2022/06/06 07:14:00;;;;;;;0.70;0.60;;;20.20;79.50;;;;;;4976811;28;20492;-75
2022/06/06 07:16:31;;;;;;;0.70;0.70;;;20.50;77.50;;;;;;4976834;28;20438;-72
2022/06/06 07:19:03;;;;;;;0.70;0.70;;;20.60;76.90;;;;;;4976357;28;20956;-73
2022/06/06 07:21:32;;;;;;;0.80;0.80;;;20.80;78.10;;;;;;4976581;28;20832;-73
2022/06/06 07:24:02;;;;;;;0.80;0.60;;;21.10;75.30;;;;;;4976710;28;20549;-71
2022/06/06 07:26:28;;;;;;;0.70;0.60;;;21.30;75.80;;;;;;4976697;28;20493;-72
2022/06/06 07:28:55;;;;;;;0.70;0.70;;;21.50;74.60;;;;;;4976581;28;20449;-71
2022/06/06 07:31:36;;;;;;;0.70;0.70;;;21.40;75.10;;;;;;4976512;28;20450;-70
2022/06/06 07:34:25;;;;;;;0.90;0.80;;;21.50;74.30;;;;;;4976502;28;20520;-70
2022/06/06 07:37:03;;;;;;;0.70;0.60;;;21.80;75.10;;;;;;4976897;28;20435;-70
2022/06/06 07:39:42;;;;;;;0.70;0.60;;;22.00;73.20;;;;;;4976595;28;20484;-71
2022/06/06 07:42:22;;;;;;;0.80;0.77;;;22.00;73.70;;;;;;4976364;28;20438;-69
2022/06/06 07:45:02;;;;;;;1.03;0.70;;;22.30;73.90;;;;;;4976170;28;20466;-70
2022/06/06 07:47:51;;;;;;;0.80;0.70;;;22.40;73.20;;;;;;4976003;28;20902;-69
2022/06/06 07:50:23;;;;;;;0.80;0.77;;;22.30;71.00;;;;;;4976069;28;20533;-68
2022/06/06 07:53:00;;;;;;;0.70;0.60;;;22.30;69.90;;;;;;4976198;28;20490;-68
2022/06/06 07:55:31;;;;;;;0.70;0.60;;;22.50;69.90;;;;;;4976059;28;20493;-69
2022/06/06 07:58:08;;;;;;;0.70;0.70;;;22.70;70.40;;;;;;4976110;28;20438;-69
2022/06/06 08:00:35;;;;;;;0.70;0.60;;;23.00;68.00;;;;;;4976046;28;20469;-69
2022/06/06 08:03:15;;;;;;;0.90;0.90;;;23.10;67.80;;;;;;4975767;28;20945;-67
2022/06/06 08:06:18;;;;;;;0.80;0.60;;;23.20;66.50;;;;;;4975994;28;20481;-69
2022/06/06 08:09:01;;;;;;;0.63;0.53;;;22.90;67.50;;;;;;4975938;28;20437;-69
2022/06/06 08:11:40;;;;;;;0.70;0.70;;;22.80;68.00;;;;;;4975777;28;20435;-69
2022/06/06 08:14:15;;;;;;;0.70;0.60;;;22.70;67.80;;;;;;4975782;28;20544;-69
2022/06/06 08:16:49;;;;;;;0.70;0.60;;;22.60;67.50;;;;;;4975534;28;20437;-68
2022/06/06 08:19:35;;;;;;;0.63;0.60;;;22.40;70.30;;;;;;4974884;28;20430;-67
2022/06/06 08:22:03;;;;;;;0.70;0.60;;;22.70;71.00;;;;;;4975566;28;20497;-69
2022/06/06 08:24:34;;;;;;;0.70;0.67;;;22.60;68.20;;;;;;4974998;28;20885;-68
2022/06/06 08:27:02;;;;;;;0.70;0.60;;;22.40;68.70;;;;;;4975480;28;20438;-68
2022/06/06 08:29:33;;;;;;;0.70;0.60;;;22.40;70.00;;;;;;4975444;28;20458;-69
2022/06/06 08:31:59;;;;;;;0.70;0.60;;;22.70;69.20;;;;;;4975733;28;20434;-67
2022/06/06 08:34:27;;;;;;;0.70;0.63;;;22.60;68.30;;;;;;4974863;28;20993;-68
2022/06/06 08:37:19;;;;;;;0.80;0.70;;;22.90;69.20;;;;;;4975169;28;20501;-67
2022/06/06 08:39:58;;;;;;;0.70;0.60;;;22.90;66.90;;;;;;4965131;28;20556;-67
2022/06/06 08:42:34;;;;;;;0.70;0.70;;;23.00;65.00;;;;;;4975212;28;20473;-67
2022/06/06 08:45:14;;;;;;;0.70;0.60;;;22.80;66.70;;;;;;4975119;28;20465;-69
2022/06/06 08:47:56;;;;;;;0.70;0.60;;;22.90;65.00;;;;;;4975212;28;20493;-67
2022/06/06 08:50:47;;;;;;;0.90;0.60;;;23.00;63.10;;;;;;4975065;28;20444;-68
2022/06/06 08:53:46;;;;;;;0.70;0.60;;;23.30;64.50;;;;;;4975155;28;20435;-68
2022/06/06 08:56:31;;;;;;;0.83;0.60;;;23.60;61.50;;;;;;4974973;28;20485;-69
2022/06/06 08:59:28;;;;;;;0.70;0.50;;;23.80;59.90;;;;;;4974641;28;20784;-69
2022/06/06 09:02:19;;;;;;;0.70;0.60;;;23.80;60.30;;;;;;4950326;28;20512;-69
2022/06/06 09:05:22;;;;;;;1.00;0.50;;;24.10;60.80;;;;;;4974843;28;20462;-69
2022/06/06 09:08:21;;;;;;;0.80;0.70;;;24.40;58.90;;;;;;4965062;28;20466;-68
2022/06/06 09:11:34;;;;;;;0.70;0.70;;;24.60;57.30;;;;;;4946903;28;20466;-68
2022/06/06 09:14:30;;;;;;;1.00;0.60;;;24.60;58.90;;;;;;4974617;28;20489;-69
2022/06/06 09:17:32;;;;;;;0.70;0.60;;;24.60;55.60;;;;;;5015243;23;20504;-73
2022/06/06 09:20:27;;;;;;;0.90;0.70;;;24.70;57.20;;;;;;4994509;28;20452;-74
2022/06/06 09:23:26;;;;;;;0.70;0.50;;;24.70;56.40;;;;;;4994524;28;20500;-73
2022/06/06 09:26:01;;;;;;;1.00;0.70;;;24.40;55.80;;;;;;4994446;28;20497;-73
2022/06/06 09:29:14;;;;;;;0.70;0.60;;;24.30;57.00;;;;;;4994472;28;20535;-73
2022/06/06 09:32:25;;;;;;;1.00;0.70;;;24.40;56.80;;;;;;4993705;28;20440;-74
2022/06/06 09:35:24;;;;;;;0.70;0.60;;;24.70;57.30;;;;;;4956807;28;21102;-73
2022/06/06 09:38:09;;;;;;;0.90;0.60;;;24.80;56.70;;;;;;4994185;28;20434;-73
2022/06/06 09:41:06;;;;;;;0.70;0.60;;;24.80;56.80;;;;;;4994383;28;20448;-73
2022/06/06 09:43:43;;;;;;;0.70;0.60;;;25.00;58.40;;;;;;4995013;28;20433;-74
2022/06/06 09:46:39;;;;;;;0.80;0.70;;;25.20;60.80;;;;;;4993736;28;21006;-73
2022/06/06 09:49:39;;;;;;;0.90;0.63;;;25.40;56.20;;;;;;4993800;28;20809;-72
2022/06/06 09:52:32;;;;;;;0.80;0.63;;;25.40;57.30;;;;;;4994051;28;20425;-70
2022/06/06 09:59:09;;;;;;;0.70;0.60;;;25.20;56.00;;;;;;4993911;28;20966;-72
2022/06/06 10:02:12;;;;;;;0.73;0.60;;;25.00;57.00;;;;;;4993668;28;20983;-72
2022/06/06 10:05:11;;;;;;;0.70;0.60;;;24.70;58.10;;;;;;4994011;28;20487;-73
2022/06/06 10:08:18;;;;;;;0.70;0.60;;;24.90;58.30;;;;;;4993916;28;20437;-70
2022/06/06 10:11:03;;;;;;;1.00;0.60;;;24.90;58.30;;;;;;4993972;28;20496;-70
2022/06/06 10:13:47;;;;;;;0.70;0.60;;;24.90;59.00;;;;;;4994704;28;20433;-69
2022/06/06 10:16:34;;;;;;;0.70;0.50;;;24.80;58.30;;;;;;4993439;28;20488;-71
2022/06/06 10:19:18;;;;;;;0.70;0.60;;;24.80;58.30;;;;;;4993605;28;20913;-71
2022/06/06 10:22:17;;;;;;;0.70;0.70;;;24.50;57.40;;;;;;4993809;28;20437;-71
2022/06/06 10:25:12;;;;;;;0.70;0.70;;;24.20;58.70;;;;;;4993847;28;20432;-72
2022/06/06 10:27:59;;;;;;;0.70;0.60;;;24.20;59.70;;;;;;4993848;28;20492;-70
2022/06/06 10:30:37;;;;;;;0.60;0.50;;;24.10;58.40;;;;;;4986867;28;20861;-71
2022/06/06 10:33:48;;;;;;;0.70;0.60;;;24.30;59.50;;;;;;4993764;28;20429;-69
2022/06/06 10:36:27;;;;;;;0.70;0.60;;;24.50;59.50;;;;;;4993504;28;20534;-70
2022/06/06 10:39:21;;;;;;;0.70;0.60;;;24.80;57.70;;;;;;4993934;28;20432;-69
2022/06/06 10:42:11;;;;;;;0.70;0.60;;;24.50;57.20;;;;;;4994852;28;20492;-68
2022/06/06 10:44:53;;;;;;;0.80;0.73;;;24.70;56.40;;;;;;4997375;28;20437;-69
2022/06/06 10:47:40;;;;;;;0.70;0.60;;;24.80;57.80;;;;;;4997347;28;20437;-70
2022/06/06 10:50:12;;;;;;;0.70;0.60;;;25.00;56.40;;;;;;4997335;28;20495;-71
2022/06/06 10:53:01;;;;;;;0.70;0.60;;;25.30;54.90;;;;;;4997288;28;20424;-71
2022/06/06 10:56:14;;;;;;;0.70;0.60;;;25.60;55.80;;;;;;4997123;28;20488;-70
2022/06/06 10:59:10;;;;;;;0.70;0.50;;;26.10;54.50;;;;;;4997407;28;20449;-75
2022/06/06 11:02:15;;;;;;;0.83;0.70;;;26.20;53.80;;;;;;4997255;28;20449;-72
2022/06/06 11:05:07;;;;;;;0.90;0.70;;;26.40;54.30;;;;;;4995034;28;20453;-72
2022/06/06 11:08:17;;;;;;;0.70;0.60;;;26.50;53.30;;;;;;4997127;28;20500;-70
2022/06/06 11:11:21;;;;;;;1.57;0.70;;;26.50;52.20;;;;;;4977619;28;20964;-73
2022/06/06 11:13:55;;;;;;;0.80;0.67;;;26.50;53.00;;;;;;4997656;28;20421;-75
2022/06/06 11:20:02;;;;;;;0.80;0.70;;;26.30;52.60;;;;;;5113977;27;1182380;-76
2022/06/06 11:22:33;;;;;;;0.70;0.60;;;26.20;53.70;;;;;;5131569;28;20209;-75
2022/06/06 11:25:10;;;;;;;0.70;0.60;;;26.00;53.40;;;;;;5131137;28;20514;-75
2022/06/06 11:28:07;;;;;;;1.00;0.70;;;25.80;53.40;;;;;;5116824;28;20462;-80
2022/06/06 11:30:57;;;;;;;0.70;0.60;;;25.60;52.80;;;;;;5119485;28;20432;-75
2022/06/06 11:33:50;;;;;;;0.70;0.60;;;25.40;54.20;;;;;;5102507;28;20459;-74
2022/06/06 11:36:48;;;;;;;0.90;0.60;;;25.20;55.00;;;;;;5072962;28;20464;-78
2022/06/06 11:40:01;;;;;;;0.90;0.70;;;25.00;54.20;;;;;;5110483;28;20871;-76
2022/06/06 11:42:48;;;;;;;0.70;0.70;;;25.00;54.50;;;;;;5107539;28;20549;-75
2022/06/06 11:45:54;;;;;;;0.70;0.57;;;24.80;55.40;;;;;;5110393;28;20470;-74
2022/06/06 11:48:46;;;;;;;0.70;0.60;;;24.90;55.80;;;;;;5096884;28;20501;-75
2022/06/06 11:51:42;;;;;;;0.80;0.70;;;25.10;56.20;;;;;;5110696;28;20432;-74
